sensor_id;sensor_type;location;lat;lon;timestamp;P1;durP1;ratioP1;P2;durP2;ratioP2
17524;SDS011;40431;52.198;9.902;2023-09-19T00:01:29;1.47;;;1.30;;
17524;SDS011;40431;52.198;9.902;2023-09-19T00:03:58;1.83;;;1.73;;
17524;SDS011;40431;52.198;9.902;2023-09-19T00:06:25;1.70;;;1.40;;
17524;SDS011;40431;52.198;9.902;2023-09-19T00:08:56;1.50;;;1.40;;
17524;SDS011;40431;52.198;9.902;2023-09-19T00:11:24;1.60;;;1.50;;
17524;SDS011;40431;52.198;9.902;2023-09-19T00:13:51;2.07;;;1.63;;
17524;SDS011;40431;52.198;9.902;2023-09-19T00:16:18;1.53;;;1.30;;
17524;SDS011;40431;52.198;9.902;2023-09-19T00:18:45;1.90;;;1.50;;
17524;SDS011;40431;52.198;9.902;2023-09-19T00:21:12;1.40;;;1.30;;
17524;SDS011;40431;52.198;9.902;2023-09-19T00:23:40;1.70;;;1.60;;
17524;SDS011;40431;52.198;9.902;2023-09-19T00:26:07;1.87;;;1.30;;
17524;SDS011;40431;52.198;9.902;2023-09-19T00:28:33;2.70;;;1.77;;
17524;SDS011;40431;52.198;9.902;2023-09-19T00:31:00;1.70;;;1.60;;
17524;SDS011;40431;52.198;9.902;2023-09-19T00:33:27;2.23;;;1.73;;
17524;SDS011;40431;52.198;9.902;2023-09-19T00:35:54;2.90;;;2.00;;
17524;SDS011;40431;52.198;9.902;2023-09-19T00:38:24;2.33;;;2.13;;
17524;SDS011;40431;52.198;9.902;2023-09-19T00:40:52;2.73;;;2.53;;
17524;SDS011;40431;52.198;9.902;2023-09-19T00:43:19;2.40;;;2.20;;
17524;SDS011;40431;52.198;9.902;2023-09-19T00:45:49;3.43;;;3.00;;
17524;SDS011;40431;52.198;9.902;2023-09-19T00:48:18;2.83;;;2.50;;
17524;SDS011;40431;52.198;9.902;2023-09-19T00:50:45;7.93;;;2.60;;
17524;SDS011;40431;52.198;9.902;2023-09-19T00:53:13;2.43;;;1.97;;
17524;SDS011;40431;52.198;9.902;2023-09-19T00:55:44;2.53;;;2.33;;
17524;SDS011;40431;52.198;9.902;2023-09-19T00:58:11;3.43;;;2.77;;
17524;SDS011;40431;52.198;9.902;2023-09-19T01:00:38;2.97;;;2.77;;
17524;SDS011;40431;52.198;9.902;2023-09-19T01:03:07;2.93;;;2.73;;
17524;SDS011;40431;52.198;9.902;2023-09-19T01:05:34;3.33;;;2.87;;
17524;SDS011;40431;52.198;9.902;2023-09-19T01:08:01;3.07;;;2.87;;
17524;SDS011;40431;52.198;9.902;2023-09-19T01:10:27;4.30;;;3.40;;
17524;SDS011;40431;52.198;9.902;2023-09-19T01:12:58;4.07;;;3.70;;
17524;SDS011;40431;52.198;9.902;2023-09-19T01:15:32;3.70;;;3.40;;
17524;SDS011;40431;52.198;9.902;2023-09-19T01:18:13;7.93;;;3.47;;
17524;SDS011;40431;52.198;9.902;2023-09-19T01:20:51;3.70;;;3.40;;
17524;SDS011;40431;52.198;9.902;2023-09-19T01:23:23;3.20;;;2.97;;
17524;SDS011;40431;52.198;9.902;2023-09-19T01:26:05;3.93;;;3.30;;
17524;SDS011;40431;52.198;9.902;2023-09-19T01:28:42;3.80;;;3.30;;
17524;SDS011;40431;52.198;9.902;2023-09-19T01:31:20;3.70;;;3.17;;
17524;SDS011;40431;52.198;9.902;2023-09-19T01:33:55;3.60;;;3.30;;
17524;SDS011;40431;52.198;9.902;2023-09-19T01:36:29;3.33;;;3.03;;
17524;SDS011;40431;52.198;9.902;2023-09-19T01:38:59;4.40;;;3.63;;
17524;SDS011;40431;52.198;9.902;2023-09-19T01:41:33;3.30;;;3.00;;
17524;SDS011;40431;52.198;9.902;2023-09-19T01:44:09;4.47;;;3.20;;
17524;SDS011;40431;52.198;9.902;2023-09-19T01:46:42;3.60;;;3.30;;
17524;SDS011;40431;52.198;9.902;2023-09-19T01:49:15;5.07;;;3.73;;
17524;SDS011;40431;52.198;9.902;2023-09-19T01:51:56;4.60;;;4.13;;
17524;SDS011;40431;52.198;9.902;2023-09-19T01:54:40;4.50;;;3.10;;
17524;SDS011;40431;52.198;9.902;2023-09-19T01:57:14;4.00;;;3.20;;
17524;SDS011;40431;52.198;9.902;2023-09-19T01:59:45;4.77;;;3.07;;
17524;SDS011;40431;52.198;9.902;2023-09-19T02:02:18;3.80;;;3.50;;
17524;SDS011;40431;52.198;9.902;2023-09-19T02:04:47;4.80;;;2.80;;
17524;SDS011;40431;52.198;9.902;2023-09-19T02:07:15;3.97;;;3.63;;
17524;SDS011;40431;52.198;9.902;2023-09-19T02:09:42;5.27;;;3.00;;
17524;SDS011;40431;52.198;9.902;2023-09-19T02:12:08;4.60;;;3.37;;
17524;SDS011;40431;52.198;9.902;2023-09-19T02:14:35;3.73;;;3.13;;
17524;SDS011;40431;52.198;9.902;2023-09-19T02:17:02;4.90;;;3.37;;
17524;SDS011;40431;52.198;9.902;2023-09-19T02:19:33;4.60;;;3.57;;
17524;SDS011;40431;52.198;9.902;2023-09-19T02:21:59;4.13;;;3.63;;
17524;SDS011;40431;52.198;9.902;2023-09-19T02:24:28;7.87;;;3.70;;
17524;SDS011;40431;52.198;9.902;2023-09-19T02:26:54;4.37;;;3.20;;
17524;SDS011;40431;52.198;9.902;2023-09-19T02:29:21;6.70;;;3.10;;
17524;SDS011;40431;52.198;9.902;2023-09-19T02:31:48;3.70;;;3.40;;
17524;SDS011;40431;52.198;9.902;2023-09-19T02:34:14;5.17;;;3.73;;
17524;SDS011;40431;52.198;9.902;2023-09-19T02:36:43;4.20;;;3.17;;
17524;SDS011;40431;52.198;9.902;2023-09-19T02:39:11;4.30;;;3.90;;
17524;SDS011;40431;52.198;9.902;2023-09-19T02:41:38;4.67;;;3.97;;
17524;SDS011;40431;52.198;9.902;2023-09-19T02:44:06;5.60;;;4.03;;
17524;SDS011;40431;52.198;9.902;2023-09-19T02:46:33;6.57;;;3.47;;
17524;SDS011;40431;52.198;9.902;2023-09-19T02:49:01;5.23;;;3.83;;
17524;SDS011;40431;52.198;9.902;2023-09-19T02:51:30;4.00;;;3.60;;
17524;SDS011;40431;52.198;9.902;2023-09-19T02:53:58;9.63;;;4.60;;
17524;SDS011;40431;52.198;9.902;2023-09-19T02:56:24;4.87;;;3.93;;
17524;SDS011;40431;52.198;9.902;2023-09-19T02:58:51;6.27;;;4.07;;
17524;SDS011;40431;52.198;9.902;2023-09-19T03:01:18;4.73;;;4.20;;
17524;SDS011;40431;52.198;9.902;2023-09-19T03:03:44;5.10;;;4.30;;
17524;SDS011;40431;52.198;9.902;2023-09-19T03:06:11;4.03;;;3.60;;
17524;SDS011;40431;52.198;9.902;2023-09-19T03:08:38;3.43;;;3.13;;
17524;SDS011;40431;52.198;9.902;2023-09-19T03:11:08;3.93;;;3.07;;
17524;SDS011;40431;52.198;9.902;2023-09-19T03:13:36;3.87;;;3.50;;
17524;SDS011;40431;52.198;9.902;2023-09-19T03:16:03;5.00;;;3.90;;
17524;SDS011;40431;52.198;9.902;2023-09-19T03:18:30;3.93;;;3.53;;
17524;SDS011;40431;52.198;9.902;2023-09-19T03:20:57;4.03;;;3.63;;
17524;SDS011;40431;52.198;9.902;2023-09-19T03:23:25;4.20;;;3.80;;
17524;SDS011;40431;52.198;9.902;2023-09-19T03:25:52;4.03;;;3.67;;
17524;SDS011;40431;52.198;9.902;2023-09-19T03:28:20;5.30;;;4.73;;
17524;SDS011;40431;52.198;9.902;2023-09-19T03:30:46;4.30;;;3.90;;
17524;SDS011;40431;52.198;9.902;2023-09-19T03:33:24;4.80;;;4.40;;
17524;SDS011;40431;52.198;9.902;2023-09-19T03:35:51;5.47;;;5.03;;
17524;SDS011;40431;52.198;9.902;2023-09-19T03:38:19;6.97;;;5.13;;
17524;SDS011;40431;52.198;9.902;2023-09-19T03:40:46;5.13;;;4.73;;
17524;SDS011;40431;52.198;9.902;2023-09-19T03:43:13;5.53;;;5.13;;
17524;SDS011;40431;52.198;9.902;2023-09-19T03:45:41;5.07;;;4.67;;
17524;SDS011;40431;52.198;9.902;2023-09-19T03:48:08;5.70;;;4.90;;
17524;SDS011;40431;52.198;9.902;2023-09-19T03:50:34;6.67;;;5.00;;
17524;SDS011;40431;52.198;9.902;2023-09-19T03:53:01;6.50;;;5.73;;
17524;SDS011;40431;52.198;9.902;2023-09-19T03:55:28;6.23;;;5.57;;
17524;SDS011;40431;52.198;9.902;2023-09-19T03:57:55;6.53;;;5.77;;
17524;SDS011;40431;52.198;9.902;2023-09-19T04:00:21;9.00;;;5.87;;
17524;SDS011;40431;52.198;9.902;2023-09-19T04:02:51;9.40;;;5.80;;
17524;SDS011;40431;52.198;9.902;2023-09-19T04:05:18;10.20;;;5.80;;
17524;SDS011;40431;52.198;9.902;2023-09-19T04:07:45;6.53;;;5.03;;
17524;SDS011;40431;52.198;9.902;2023-09-19T04:10:11;6.40;;;5.80;;
17524;SDS011;40431;52.198;9.902;2023-09-19T04:12:39;6.00;;;5.40;;
17524;SDS011;40431;52.198;9.902;2023-09-19T04:15:06;7.90;;;5.87;;
17524;SDS011;40431;52.198;9.902;2023-09-19T04:17:38;8.23;;;5.53;;
17524;SDS011;40431;52.198;9.902;2023-09-19T04:20:06;7.93;;;5.57;;
17524;SDS011;40431;52.198;9.902;2023-09-19T04:22:34;6.87;;;6.17;;
17524;SDS011;40431;52.198;9.902;2023-09-19T04:25:00;5.70;;;5.20;;
17524;SDS011;40431;52.198;9.902;2023-09-19T04:27:27;6.60;;;5.63;;
17524;SDS011;40431;52.198;9.902;2023-09-19T04:29:53;6.10;;;5.50;;
17524;SDS011;40431;52.198;9.902;2023-09-19T04:32:24;7.00;;;6.07;;
17524;SDS011;40431;52.198;9.902;2023-09-19T04:34:54;7.30;;;6.30;;
17524;SDS011;40431;52.198;9.902;2023-09-19T04:37:26;7.03;;;5.90;;
17524;SDS011;40431;52.198;9.902;2023-09-19T04:39:53;6.17;;;5.57;;
17524;SDS011;40431;52.198;9.902;2023-09-19T04:42:20;6.53;;;5.90;;
17524;SDS011;40431;52.198;9.902;2023-09-19T04:44:47;6.40;;;5.27;;
17524;SDS011;40431;52.198;9.902;2023-09-19T04:47:14;5.33;;;4.93;;
17524;SDS011;40431;52.198;9.902;2023-09-19T04:49:41;8.97;;;5.50;;
17524;SDS011;40431;52.198;9.902;2023-09-19T04:52:07;6.00;;;5.47;;
17524;SDS011;40431;52.198;9.902;2023-09-19T04:54:35;5.57;;;5.07;;
17524;SDS011;40431;52.198;9.902;2023-09-19T04:57:02;7.63;;;4.83;;
17524;SDS011;40431;52.198;9.902;2023-09-19T04:59:30;5.47;;;4.27;;
17524;SDS011;40431;52.198;9.902;2023-09-19T05:01:57;6.80;;;5.17;;
17524;SDS011;40431;52.198;9.902;2023-09-19T05:04:24;6.60;;;4.80;;
17524;SDS011;40431;52.198;9.902;2023-09-19T05:06:50;5.67;;;4.90;;
17524;SDS011;40431;52.198;9.902;2023-09-19T05:09:17;8.57;;;5.23;;
17524;SDS011;40431;52.198;9.902;2023-09-19T05:11:46;8.37;;;5.13;;
17524;SDS011;40431;52.198;9.902;2023-09-19T05:14:13;6.50;;;4.90;;
17524;SDS011;40431;52.198;9.902;2023-09-19T05:16:39;6.37;;;4.83;;
17524;SDS011;40431;52.198;9.902;2023-09-19T05:19:06;7.17;;;4.83;;
17524;SDS011;40431;52.198;9.902;2023-09-19T05:21:34;5.77;;;5.03;;
17524;SDS011;40431;52.198;9.902;2023-09-19T05:24:01;9.03;;;5.20;;
17524;SDS011;40431;52.198;9.902;2023-09-19T05:26:27;7.23;;;5.30;;
17524;SDS011;40431;52.198;9.902;2023-09-19T05:28:55;8.00;;;4.47;;
17524;SDS011;40431;52.198;9.902;2023-09-19T05:31:22;8.60;;;5.77;;
17524;SDS011;40431;52.198;9.902;2023-09-19T05:33:49;6.97;;;5.37;;
17524;SDS011;40431;52.198;9.902;2023-09-19T05:36:16;9.47;;;5.23;;
17524;SDS011;40431;52.198;9.902;2023-09-19T05:38:42;7.43;;;5.60;;
17524;SDS011;40431;52.198;9.902;2023-09-19T05:41:09;8.57;;;5.23;;
17524;SDS011;40431;52.198;9.902;2023-09-19T05:43:38;9.87;;;5.77;;
17524;SDS011;40431;52.198;9.902;2023-09-19T05:46:07;8.80;;;5.53;;
17524;SDS011;40431;52.198;9.902;2023-09-19T05:48:34;7.00;;;5.20;;
17524;SDS011;40431;52.198;9.902;2023-09-19T05:51:01;6.67;;;5.33;;
17524;SDS011;40431;52.198;9.902;2023-09-19T05:53:27;8.50;;;5.90;;
17524;SDS011;40431;52.198;9.902;2023-09-19T05:55:55;5.30;;;4.67;;
17524;SDS011;40431;52.198;9.902;2023-09-19T05:58:21;8.83;;;5.37;;
17524;SDS011;40431;52.198;9.902;2023-09-19T06:00:47;6.37;;;5.17;;
17524;SDS011;40431;52.198;9.902;2023-09-19T06:03:15;8.23;;;5.13;;
17524;SDS011;40431;52.198;9.902;2023-09-19T06:05:43;6.53;;;4.80;;
17524;SDS011;40431;52.198;9.902;2023-09-19T06:08:11;7.07;;;4.90;;
17524;SDS011;40431;52.198;9.902;2023-09-19T06:10:37;8.53;;;5.13;;
17524;SDS011;40431;52.198;9.902;2023-09-19T06:13:04;6.17;;;4.53;;
17524;SDS011;40431;52.198;9.902;2023-09-19T06:15:31;8.07;;;4.50;;
17524;SDS011;40431;52.198;9.902;2023-09-19T06:18:00;5.70;;;4.30;;
17524;SDS011;40431;52.198;9.902;2023-09-19T06:20:29;6.90;;;4.77;;
17524;SDS011;40431;52.198;9.902;2023-09-19T06:22:56;10.43;;;4.70;;
17524;SDS011;40431;52.198;9.902;2023-09-19T06:25:22;5.60;;;4.27;;
17524;SDS011;40431;52.198;9.902;2023-09-19T06:27:49;7.27;;;4.00;;
17524;SDS011;40431;52.198;9.902;2023-09-19T06:30:19;7.73;;;4.60;;
17524;SDS011;40431;52.198;9.902;2023-09-19T06:32:46;6.03;;;4.13;;
17524;SDS011;40431;52.198;9.902;2023-09-19T06:35:14;8.50;;;4.40;;
17524;SDS011;40431;52.198;9.902;2023-09-19T06:37:42;7.83;;;4.87;;
17524;SDS011;40431;52.198;9.902;2023-09-19T06:40:10;5.80;;;3.97;;
17524;SDS011;40431;52.198;9.902;2023-09-19T06:42:39;8.53;;;3.67;;
17524;SDS011;40431;52.198;9.902;2023-09-19T06:45:07;6.40;;;4.33;;
17524;SDS011;40431;52.198;9.902;2023-09-19T06:47:36;12.90;;;4.90;;
17524;SDS011;40431;52.198;9.902;2023-09-19T06:50:03;6.43;;;4.03;;
17524;SDS011;40431;52.198;9.902;2023-09-19T06:52:30;7.13;;;4.13;;
17524;SDS011;40431;52.198;9.902;2023-09-19T06:54:59;10.20;;;3.87;;
17524;SDS011;40431;52.198;9.902;2023-09-19T06:57:28;8.17;;;4.10;;
17524;SDS011;40431;52.198;9.902;2023-09-19T06:59:55;7.17;;;4.23;;
17524;SDS011;40431;52.198;9.902;2023-09-19T07:02:22;7.90;;;3.90;;
17524;SDS011;40431;52.198;9.902;2023-09-19T07:04:48;5.30;;;3.20;;
17524;SDS011;40431;52.198;9.902;2023-09-19T07:07:15;8.40;;;4.00;;
17524;SDS011;40431;52.198;9.902;2023-09-19T07:09:42;4.63;;;3.30;;
17524;SDS011;40431;52.198;9.902;2023-09-19T07:12:09;5.00;;;2.67;;
17524;SDS011;40431;52.198;9.902;2023-09-19T07:14:37;7.07;;;3.60;;
17524;SDS011;40431;52.198;9.902;2023-09-19T07:17:03;5.87;;;2.97;;
17524;SDS011;40431;52.198;9.902;2023-09-19T07:19:29;5.90;;;2.63;;
17524;SDS011;40431;52.198;9.902;2023-09-19T07:21:56;10.53;;;3.10;;
17524;SDS011;40431;52.198;9.902;2023-09-19T07:24:24;10.63;;;3.63;;
17524;SDS011;40431;52.198;9.902;2023-09-19T07:26:52;5.60;;;2.60;;
17524;SDS011;40431;52.198;9.902;2023-09-19T07:29:20;9.57;;;3.70;;
17524;SDS011;40431;52.198;9.902;2023-09-19T07:31:46;5.63;;;2.43;;
17524;SDS011;40431;52.198;9.902;2023-09-19T07:34:13;7.67;;;3.13;;
17524;SDS011;40431;52.198;9.902;2023-09-19T07:36:40;5.40;;;2.83;;
17524;SDS011;40431;52.198;9.902;2023-09-19T07:39:07;6.30;;;2.30;;
17524;SDS011;40431;52.198;9.902;2023-09-19T07:41:34;4.87;;;2.67;;
17524;SDS011;40431;52.198;9.902;2023-09-19T07:44:00;7.20;;;2.93;;
17524;SDS011;40431;52.198;9.902;2023-09-19T07:46:28;6.70;;;2.93;;
17524;SDS011;40431;52.198;9.902;2023-09-19T07:48:56;6.13;;;2.57;;
17524;SDS011;40431;52.198;9.902;2023-09-19T07:51:22;7.73;;;3.47;;
17524;SDS011;40431;52.198;9.902;2023-09-19T07:53:49;4.83;;;2.53;;
17524;SDS011;40431;52.198;9.902;2023-09-19T07:56:15;4.53;;;2.40;;
17524;SDS011;40431;52.198;9.902;2023-09-19T07:58:44;7.90;;;2.67;;
17524;SDS011;40431;52.198;9.902;2023-09-19T08:01:11;6.70;;;2.10;;
17524;SDS011;40431;52.198;9.902;2023-09-19T08:03:39;4.97;;;2.33;;
17524;SDS011;40431;52.198;9.902;2023-09-19T08:06:07;8.10;;;2.43;;
17524;SDS011;40431;52.198;9.902;2023-09-19T08:08:33;4.33;;;2.07;;
17524;SDS011;40431;52.198;9.902;2023-09-19T08:11:02;4.43;;;2.60;;
17524;SDS011;40431;52.198;9.902;2023-09-19T08:13:35;12.23;;;2.87;;
17524;SDS011;40431;52.198;9.902;2023-09-19T08:16:02;4.70;;;2.63;;
17524;SDS011;40431;52.198;9.902;2023-09-19T08:18:29;5.03;;;2.47;;
17524;SDS011;40431;52.198;9.902;2023-09-19T08:20:57;8.00;;;2.80;;
17524;SDS011;40431;52.198;9.902;2023-09-19T08:23:25;7.60;;;2.50;;
17524;SDS011;40431;52.198;9.902;2023-09-19T08:25:55;6.00;;;2.50;;
17524;SDS011;40431;52.198;9.902;2023-09-19T08:28:22;6.00;;;2.43;;
17524;SDS011;40431;52.198;9.902;2023-09-19T08:30:49;7.60;;;2.63;;
17524;SDS011;40431;52.198;9.902;2023-09-19T08:33:16;5.70;;;2.43;;
17524;SDS011;40431;52.198;9.902;2023-09-19T08:35:42;4.80;;;2.47;;
17524;SDS011;40431;52.198;9.902;2023-09-19T08:38:11;5.00;;;2.17;;
17524;SDS011;40431;52.198;9.902;2023-09-19T08:40:39;6.03;;;2.43;;
17524;SDS011;40431;52.198;9.902;2023-09-19T08:43:08;6.63;;;2.43;;
17524;SDS011;40431;52.198;9.902;2023-09-19T08:45:35;6.40;;;2.10;;
17524;SDS011;40431;52.198;9.902;2023-09-19T08:48:08;6.50;;;2.60;;
17524;SDS011;40431;52.198;9.902;2023-09-19T08:50:43;7.07;;;2.67;;
17524;SDS011;40431;52.198;9.902;2023-09-19T08:53:16;4.17;;;2.23;;
17524;SDS011;40431;52.198;9.902;2023-09-19T08:55:48;6.03;;;2.30;;
17524;SDS011;40431;52.198;9.902;2023-09-19T08:58:19;5.70;;;2.63;;
17524;SDS011;40431;52.198;9.902;2023-09-19T09:00:48;5.37;;;2.43;;
17524;SDS011;40431;52.198;9.902;2023-09-19T09:03:16;4.57;;;2.77;;
17524;SDS011;40431;52.198;9.902;2023-09-19T09:05:44;5.00;;;2.23;;
17524;SDS011;40431;52.198;9.902;2023-09-19T09:08:12;4.77;;;1.97;;
17524;SDS011;40431;52.198;9.902;2023-09-19T09:10:41;3.83;;;1.57;;
17524;SDS011;40431;52.198;9.902;2023-09-19T09:13:10;5.03;;;1.90;;
17524;SDS011;40431;52.198;9.902;2023-09-19T09:15:39;6.37;;;2.60;;
17524;SDS011;40431;52.198;9.902;2023-09-19T09:18:09;3.73;;;2.30;;
17524;SDS011;40431;52.198;9.902;2023-09-19T09:20:36;2.57;;;1.83;;
17524;SDS011;40431;52.198;9.902;2023-09-19T09:23:03;4.23;;;2.23;;
17524;SDS011;40431;52.198;9.902;2023-09-19T09:28:21;5.03;;;2.47;;
17524;SDS011;40431;52.198;9.902;2023-09-19T09:30:49;3.40;;;1.60;;
17524;SDS011;40431;52.198;9.902;2023-09-19T09:33:16;5.63;;;2.47;;
17524;SDS011;40431;52.198;9.902;2023-09-19T09:35:47;5.33;;;2.90;;
17524;SDS011;40431;52.198;9.902;2023-09-19T09:38:17;6.57;;;2.00;;
17524;SDS011;40431;52.198;9.902;2023-09-19T09:40:47;6.40;;;2.43;;
17524;SDS011;40431;52.198;9.902;2023-09-19T09:43:26;5.63;;;2.43;;
17524;SDS011;40431;52.198;9.902;2023-09-19T09:46:05;5.07;;;2.30;;
17524;SDS011;40431;52.198;9.902;2023-09-19T09:48:36;3.37;;;1.93;;
17524;SDS011;40431;52.198;9.902;2023-09-19T09:51:04;6.73;;;2.30;;
17524;SDS011;40431;52.198;9.902;2023-09-19T09:53:32;4.97;;;2.20;;
17524;SDS011;40431;52.198;9.902;2023-09-19T09:56:00;5.47;;;2.53;;
17524;SDS011;40431;52.198;9.902;2023-09-19T09:58:32;4.63;;;2.10;;
17524;SDS011;40431;52.198;9.902;2023-09-19T10:01:00;9.73;;;2.47;;
17524;SDS011;40431;52.198;9.902;2023-09-19T10:03:34;4.40;;;2.37;;
17524;SDS011;40431;52.198;9.902;2023-09-19T10:06:04;6.33;;;2.47;;
17524;SDS011;40431;52.198;9.902;2023-09-19T10:08:59;7.63;;;2.73;;
17524;SDS011;40431;52.198;9.902;2023-09-19T10:11:37;8.27;;;2.50;;
17524;SDS011;40431;52.198;9.902;2023-09-19T10:14:09;3.30;;;2.20;;
17524;SDS011;40431;52.198;9.902;2023-09-19T10:16:39;3.77;;;2.47;;
17524;SDS011;40431;52.198;9.902;2023-09-19T10:19:07;5.40;;;2.47;;
17524;SDS011;40431;52.198;9.902;2023-09-19T10:21:34;5.13;;;1.83;;
17524;SDS011;40431;52.198;9.902;2023-09-19T10:24:02;7.10;;;2.60;;
17524;SDS011;40431;52.198;9.902;2023-09-19T10:26:32;4.57;;;2.20;;
17524;SDS011;40431;52.198;9.902;2023-09-19T10:29:01;4.00;;;2.47;;
17524;SDS011;40431;52.198;9.902;2023-09-19T10:31:33;5.93;;;2.23;;
17524;SDS011;40431;52.198;9.902;2023-09-19T10:34:05;8.27;;;2.40;;
17524;SDS011;40431;52.198;9.902;2023-09-19T10:36:34;2.27;;;1.73;;
17524;SDS011;40431;52.198;9.902;2023-09-19T10:39:03;3.43;;;2.37;;
17524;SDS011;40431;52.198;9.902;2023-09-19T10:41:34;6.33;;;2.83;;
17524;SDS011;40431;52.198;9.902;2023-09-19T10:44:02;7.40;;;2.60;;
17524;SDS011;40431;52.198;9.902;2023-09-19T10:46:31;5.27;;;2.43;;
17524;SDS011;40431;52.198;9.902;2023-09-19T10:48:59;5.70;;;2.20;;
17524;SDS011;40431;52.198;9.902;2023-09-19T10:51:28;5.67;;;2.60;;
17524;SDS011;40431;52.198;9.902;2023-09-19T10:53:59;6.40;;;2.63;;
17524;SDS011;40431;52.198;9.902;2023-09-19T10:56:32;4.23;;;2.70;;
17524;SDS011;40431;52.198;9.902;2023-09-19T10:59:05;4.87;;;2.07;;
17524;SDS011;40431;52.198;9.902;2023-09-19T11:01:43;6.93;;;2.30;;
17524;SDS011;40431;52.198;9.902;2023-09-19T11:04:21;4.60;;;2.47;;
17524;SDS011;40431;52.198;9.902;2023-09-19T11:06:59;4.90;;;2.37;;
17524;SDS011;40431;52.198;9.902;2023-09-19T11:09:42;5.37;;;2.73;;
17524;SDS011;40431;52.198;9.902;2023-09-19T11:12:11;4.90;;;3.03;;
17524;SDS011;40431;52.198;9.902;2023-09-19T11:14:41;6.63;;;2.40;;
17524;SDS011;40431;52.198;9.902;2023-09-19T11:20:16;5.43;;;2.43;;
17524;SDS011;40431;52.198;9.902;2023-09-19T11:23:21;7.00;;;2.90;;
17524;SDS011;40431;52.198;9.902;2023-09-19T11:25:51;5.53;;;2.83;;
17524;SDS011;40431;52.198;9.902;2023-09-19T11:28:34;4.27;;;2.50;;
17524;SDS011;40431;52.198;9.902;2023-09-19T11:40:37;9.47;;;3.30;;
17524;SDS011;40431;52.198;9.902;2023-09-19T11:46:08;3.13;;;1.90;;
17524;SDS011;40431;52.198;9.902;2023-09-19T11:48:35;5.03;;;3.07;;
17524;SDS011;40431;52.198;9.902;2023-09-19T11:51:13;6.13;;;2.43;;
17524;SDS011;40431;52.198;9.902;2023-09-19T11:53:47;3.47;;;2.27;;
17524;SDS011;40431;52.198;9.902;2023-09-19T11:56:16;6.90;;;2.90;;
17524;SDS011;40431;52.198;9.902;2023-09-19T11:58:45;4.13;;;2.73;;
17524;SDS011;40431;52.198;9.902;2023-09-19T12:01:14;3.53;;;2.23;;
17524;SDS011;40431;52.198;9.902;2023-09-19T12:03:45;4.80;;;2.40;;
17524;SDS011;40431;52.198;9.902;2023-09-19T12:06:14;5.40;;;2.23;;
17524;SDS011;40431;52.198;9.902;2023-09-19T12:08:42;3.77;;;2.47;;
17524;SDS011;40431;52.198;9.902;2023-09-19T12:11:12;6.80;;;2.67;;
17524;SDS011;40431;52.198;9.902;2023-09-19T12:13:42;5.17;;;2.30;;
17524;SDS011;40431;52.198;9.902;2023-09-19T12:16:13;4.63;;;2.20;;
17524;SDS011;40431;52.198;9.902;2023-09-19T12:18:42;4.07;;;2.53;;
17524;SDS011;40431;52.198;9.902;2023-09-19T12:21:20;5.63;;;2.57;;
17524;SDS011;40431;52.198;9.902;2023-09-19T12:24:04;4.67;;;2.57;;
17524;SDS011;40431;52.198;9.902;2023-09-19T12:26:39;5.17;;;2.73;;
17524;SDS011;40431;52.198;9.902;2023-09-19T12:29:16;4.67;;;2.43;;
17524;SDS011;40431;52.198;9.902;2023-09-19T12:31:53;3.53;;;2.37;;
17524;SDS011;40431;52.198;9.902;2023-09-19T12:34:25;5.43;;;3.40;;
17524;SDS011;40431;52.198;9.902;2023-09-19T12:37:06;5.87;;;2.90;;
17524;SDS011;40431;52.198;9.902;2023-09-19T12:39:38;5.23;;;2.93;;
17524;SDS011;40431;52.198;9.902;2023-09-19T12:42:06;4.23;;;2.30;;
17524;SDS011;40431;52.198;9.902;2023-09-19T12:44:36;3.67;;;2.40;;
17524;SDS011;40431;52.198;9.902;2023-09-19T12:47:13;4.00;;;2.40;;
17524;SDS011;40431;52.198;9.902;2023-09-19T12:52:42;4.07;;;2.27;;
17524;SDS011;40431;52.198;9.902;2023-09-19T12:55:21;4.57;;;2.83;;
17524;SDS011;40431;52.198;9.902;2023-09-19T12:57:58;6.77;;;2.73;;
17524;SDS011;40431;52.198;9.902;2023-09-19T13:00:34;5.13;;;2.83;;
17524;SDS011;40431;52.198;9.902;2023-09-19T13:03:15;5.10;;;2.80;;
17524;SDS011;40431;52.198;9.902;2023-09-19T13:05:47;2.93;;;2.10;;
17524;SDS011;40431;52.198;9.902;2023-09-19T13:08:18;6.63;;;2.70;;
17524;SDS011;40431;52.198;9.902;2023-09-19T13:11:02;4.63;;;2.30;;
17524;SDS011;40431;52.198;9.902;2023-09-19T13:13:31;5.13;;;2.60;;
17524;SDS011;40431;52.198;9.902;2023-09-19T13:16:00;3.20;;;2.40;;
17524;SDS011;40431;52.198;9.902;2023-09-19T13:18:27;4.70;;;2.27;;
17524;SDS011;40431;52.198;9.902;2023-09-19T13:21:07;4.17;;;2.50;;
17524;SDS011;40431;52.198;9.902;2023-09-19T13:23:35;3.20;;;2.00;;
17524;SDS011;40431;52.198;9.902;2023-09-19T13:26:02;4.87;;;2.60;;
17524;SDS011;40431;52.198;9.902;2023-09-19T13:28:29;4.00;;;2.47;;
17524;SDS011;40431;52.198;9.902;2023-09-19T13:30:56;3.17;;;2.77;;
17524;SDS011;40431;52.198;9.902;2023-09-19T13:33:23;4.10;;;2.27;;
17524;SDS011;40431;52.198;9.902;2023-09-19T13:35:51;5.07;;;2.70;;
17524;SDS011;40431;52.198;9.902;2023-09-19T13:38:17;4.03;;;2.40;;
17524;SDS011;40431;52.198;9.902;2023-09-19T13:40:47;3.40;;;2.17;;
17524;SDS011;40431;52.198;9.902;2023-09-19T13:43:14;3.50;;;2.30;;
17524;SDS011;40431;52.198;9.902;2023-09-19T13:45:41;7.13;;;2.77;;
17524;SDS011;40431;52.198;9.902;2023-09-19T13:48:08;3.13;;;2.67;;
17524;SDS011;40431;52.198;9.902;2023-09-19T13:50:37;4.27;;;2.67;;
17524;SDS011;40431;52.198;9.902;2023-09-19T13:53:07;4.27;;;2.30;;
17524;SDS011;40431;52.198;9.902;2023-09-19T13:55:33;4.03;;;2.50;;
17524;SDS011;40431;52.198;9.902;2023-09-19T13:57:59;6.20;;;2.60;;
17524;SDS011;40431;52.198;9.902;2023-09-19T14:00:26;3.93;;;2.30;;
17524;SDS011;40431;52.198;9.902;2023-09-19T14:02:53;4.63;;;2.40;;
17524;SDS011;40431;52.198;9.902;2023-09-19T14:05:20;4.73;;;2.80;;
17524;SDS011;40431;52.198;9.902;2023-09-19T14:07:48;4.10;;;2.07;;
17524;SDS011;40431;52.198;9.902;2023-09-19T14:10:14;3.90;;;2.60;;
17524;SDS011;40431;52.198;9.902;2023-09-19T14:12:42;3.97;;;2.87;;
17524;SDS011;40431;52.198;9.902;2023-09-19T14:15:10;2.60;;;2.23;;
17524;SDS011;40431;52.198;9.902;2023-09-19T14:17:37;7.43;;;2.80;;
17524;SDS011;40431;52.198;9.902;2023-09-19T14:20:04;4.37;;;2.33;;
17524;SDS011;40431;52.198;9.902;2023-09-19T14:22:32;4.27;;;2.37;;
17524;SDS011;40431;52.198;9.902;2023-09-19T14:24:59;4.27;;;2.43;;
17524;SDS011;40431;52.198;9.902;2023-09-19T14:27:26;6.50;;;2.43;;
17524;SDS011;40431;52.198;9.902;2023-09-19T14:29:52;6.53;;;2.93;;
17524;SDS011;40431;52.198;9.902;2023-09-19T14:32:19;5.03;;;2.70;;
17524;SDS011;40431;52.198;9.902;2023-09-19T14:34:45;4.50;;;3.33;;
17524;SDS011;40431;52.198;9.902;2023-09-19T14:37:12;3.70;;;2.40;;
17524;SDS011;40431;52.198;9.902;2023-09-19T14:39:39;3.57;;;2.30;;
17524;SDS011;40431;52.198;9.902;2023-09-19T14:42:11;6.63;;;3.07;;
17524;SDS011;40431;52.198;9.902;2023-09-19T14:44:39;3.90;;;2.23;;
17524;SDS011;40431;52.198;9.902;2023-09-19T14:47:06;3.43;;;2.00;;
17524;SDS011;40431;52.198;9.902;2023-09-19T14:49:33;3.60;;;2.13;;
17524;SDS011;40431;52.198;9.902;2023-09-19T14:51:59;3.23;;;1.93;;
17524;SDS011;40431;52.198;9.902;2023-09-19T14:54:28;3.20;;;1.80;;
17524;SDS011;40431;52.198;9.902;2023-09-19T14:56:55;3.40;;;2.33;;
17524;SDS011;40431;52.198;9.902;2023-09-19T14:59:31;2.70;;;2.17;;
17524;SDS011;40431;52.198;9.902;2023-09-19T15:01:58;4.23;;;2.47;;
17524;SDS011;40431;52.198;9.902;2023-09-19T15:04:24;3.77;;;2.07;;
17524;SDS011;40431;52.198;9.902;2023-09-19T15:06:53;3.33;;;2.17;;
17524;SDS011;40431;52.198;9.902;2023-09-19T15:09:20;4.30;;;2.40;;
17524;SDS011;40431;52.198;9.902;2023-09-19T15:11:49;3.57;;;2.40;;
17524;SDS011;40431;52.198;9.902;2023-09-19T15:14:16;3.37;;;1.80;;
17524;SDS011;40431;52.198;9.902;2023-09-19T15:16:43;4.63;;;2.30;;
17524;SDS011;40431;52.198;9.902;2023-09-19T15:19:10;2.57;;;1.87;;
17524;SDS011;40431;52.198;9.902;2023-09-19T15:21:36;2.67;;;1.67;;